Time;durP1;ratioP1;P1;durP2;ratioP2;P2;SDS_P1;SDS_P2;PMS_P1;PMS_P2;Temp;Humidity;BMP_temperature;BMP_pressure;BME280_temperature;BME280_humidity;BME280_pressure;Samples;Min_cycle;Max_cycle;Signal;HPM_P1;HPM_P2
2023/01/31 00:01:17;;;;;;;4.03;1.20;;;;;;;;;;4990200;28;20360;-65
2023/01/31 00:03:43;;;;;;;3.15;0.93;;;;;;;;;;4975664;28;20040;-66
2023/01/31 00:06:18;;;;;;;2.92;1.00;;;;;;;;;;4971080;28;20033;-64
2023/01/31 00:08:48;;;;;;;4.70;1.15;;;;;;;;;;4990721;28;20192;-65
2023/01/31 00:11:19;;;;;;;3.38;1.00;;;;;;;;;;4986090;28;20522;-65
2023/01/31 00:13:47;;;;;;;3.28;1.20;;;;;;;;;;4969211;28;20300;-66
2023/01/31 00:16:15;;;;;;;3.55;0.90;;;;;;;;;;4981384;28;20059;-64
2023/01/31 00:18:42;;;;;;;4.97;1.20;;;;;;;;;;4993247;28;20072;-67
2023/01/31 00:21:13;;;;;;;5.97;1.10;;;;;;;;;;4992997;28;20351;-66
2023/01/31 00:23:41;;;;;;;3.65;1.10;;;;;;;;;;4993178;28;20073;-64
2023/01/31 00:26:17;;;;;;;3.70;1.05;;;;;;;;;;4984294;28;20129;-65
2023/01/31 00:28:45;;;;;;;4.80;1.00;;;;;;;;;;4960979;28;20050;-66
2023/01/31 00:31:32;;;;;;;7.43;1.80;;;;;;;;;;4990328;28;20053;-64
2023/01/31 00:34:38;;;;;;;6.35;1.30;;;;;;;;;;4989491;28;20179;-66
2023/01/31 00:37:44;;;;;;;3.40;1.08;;;;;;;;;;4968256;28;20057;-66
2023/01/31 00:40:32;;;;;;;3.08;0.93;;;;;;;;;;4946076;28;20292;-67
2023/01/31 00:42:59;;;;;;;3.78;1.17;;;;;;;;;;4955565;28;20165;-65
2023/01/31 00:45:25;;;;;;;3.05;1.08;;;;;;;;;;4955585;28;20038;-64
2023/01/31 00:47:54;;;;;;;7.15;1.58;;;;;;;;;;4951968;28;20347;-66
2023/01/31 00:50:22;;;;;;;5.13;1.42;;;;;;;;;;4965024;28;20519;-66
2023/01/31 00:52:49;;;;;;;4.25;1.05;;;;;;;;;;4946346;28;20057;-65
2023/01/31 00:55:15;;;;;;;6.60;1.00;;;;;;;;;;4968446;28;20085;-63
2023/01/31 00:58:02;;;;;;;7.82;1.30;;;;;;;;;;4954821;28;20059;-64
2023/01/31 01:00:30;;;;;;;3.85;1.50;;;;;;;;;;4954104;28;20066;-64
2023/01/31 01:02:57;;;;;;;4.35;1.40;;;;;;;;;;4954851;28;20121;-66
2023/01/31 01:05:23;;;;;;;4.63;1.30;;;;;;;;;;4952591;28;20507;-66
2023/01/31 01:07:50;;;;;;;5.93;1.30;;;;;;;;;;4954077;28;20424;-66
2023/01/31 01:10:17;;;;;;;3.90;1.63;;;;;;;;;;4954483;28;20504;-67
2023/01/31 01:12:43;;;;;;;9.50;2.13;;;;;;;;;;4948587;28;20074;-66
2023/01/31 01:15:10;;;;;;;10.45;3.20;;;;;;;;;;4989626;28;20046;-65
2023/01/31 01:17:37;;;;;;;5.10;1.98;;;;;;;;;;4995464;28;20049;-66
2023/01/31 01:20:03;;;;;;;5.25;1.45;;;;;;;;;;4997406;28;20108;-67
2023/01/31 01:22:30;;;;;;;6.13;1.95;;;;;;;;;;5002012;28;20056;-67
2023/01/31 01:24:57;;;;;;;4.68;1.35;;;;;;;;;;5015050;28;20033;-67
2023/01/31 01:27:26;;;;;;;7.80;1.83;;;;;;;;;;5012479;28;20049;-67
2023/01/31 01:29:52;;;;;;;9.05;1.85;;;;;;;;;;5017222;28;20115;-68
2023/01/31 01:32:19;;;;;;;5.60;1.67;;;;;;;;;;5012372;28;20061;-67
2023/01/31 01:34:46;;;;;;;3.63;1.35;;;;;;;;;;5017757;28;20060;-66
2023/01/31 01:37:18;;;;;;;6.22;1.65;;;;;;;;;;5002003;28;20053;-67
2023/01/31 01:39:49;;;;;;;3.72;1.15;;;;;;;;;;5019641;28;20159;-66
2023/01/31 01:42:36;;;;;;;4.90;1.58;;;;;;;;;;5001638;28;20073;-67
2023/01/31 01:45:12;;;;;;;3.58;1.40;;;;;;;;;;5000359;28;20037;-66
2023/01/31 01:47:49;;;;;;;4.22;1.20;;;;;;;;;;4986409;28;20047;-66
2023/01/31 01:50:33;;;;;;;3.50;1.50;;;;;;;;;;4944869;28;20180;-67
2023/01/31 01:53:02;;;;;;;5.70;1.48;;;;;;;;;;4992269;28;20048;-65
2023/01/31 01:55:37;;;;;;;3.00;1.30;;;;;;;;;;5003034;28;20051;-66
2023/01/31 01:58:07;;;;;;;3.75;1.05;;;;;;;;;;5000849;28;20092;-66
2023/01/31 02:00:35;;;;;;;4.43;1.58;;;;;;;;;;5009935;28;20211;-66
2023/01/31 02:03:03;;;;;;;5.03;1.35;;;;;;;;;;5009692;28;20050;-66
2023/01/31 02:05:31;;;;;;;4.20;1.40;;;;;;;;;;5010062;28;20033;-66
2023/01/31 02:07:59;;;;;;;4.38;1.42;;;;;;;;;;4995191;28;20038;-66
2023/01/31 02:10:36;;;;;;;3.63;1.23;;;;;;;;;;5012299;28;20041;-66
2023/01/31 02:13:03;;;;;;;5.43;2.05;;;;;;;;;;5009969;28;20041;-66
2023/01/31 02:15:30;;;;;;;4.03;1.60;;;;;;;;;;5009347;28;21829;-66
2023/01/31 02:17:57;;;;;;;5.40;1.80;;;;;;;;;;5009522;28;20891;-65
2023/01/31 02:20:31;;;;;;;5.47;1.95;;;;;;;;;;5002682;28;20256;-66
2023/01/31 02:23:09;;;;;;;6.28;2.05;;;;;;;;;;5020367;28;20060;-66
2023/01/31 02:25:39;;;;;;;3.63;1.55;;;;;;;;;;5019502;28;20072;-67
2023/01/31 02:28:20;;;;;;;5.38;2.05;;;;;;;;;;5020885;28;20073;-65
2023/01/31 02:30:46;;;;;;;3.88;1.83;;;;;;;;;;5018967;28;20048;-66
2023/01/31 02:33:25;;;;;;;4.85;1.80;;;;;;;;;;5019304;28;20099;-66
2023/01/31 02:36:10;;;;;;;6.07;1.67;;;;;;;;;;5018291;28;20049;-66
2023/01/31 02:38:39;;;;;;;6.15;1.83;;;;;;;;;;5018444;28;20103;-66
2023/01/31 02:41:13;;;;;;;5.90;2.38;;;;;;;;;;5020609;28;20467;-65
2023/01/31 02:46:42;;;;;;;6.28;2.08;;;;;;;;;;5022727;28;20072;-66
2023/01/31 02:49:33;;;;;;;5.70;1.70;;;;;;;;;;5023730;28;20042;-63
2023/01/31 02:52:15;;;;;;;7.57;1.92;;;;;;;;;;5022355;28;20033;-65
2023/01/31 02:57:31;;;;;;;5.88;1.92;;;;;;;;;;5012898;28;20072;-67
2023/01/31 02:59:58;;;;;;;5.68;1.60;;;;;;;;;;5000377;28;20713;-67
2023/01/31 03:02:25;;;;;;;3.53;1.33;;;;;;;;;;5023104;28;20041;-66
2023/01/31 03:04:52;;;;;;;4.78;1.45;;;;;;;;;;5024090;28;20033;-67
2023/01/31 03:07:32;;;;;;;5.88;1.52;;;;;;;;;;5019665;28;20030;-68
2023/01/31 03:10:04;;;;;;;3.70;1.45;;;;;;;;;;5024127;28;20045;-66
2023/01/31 03:12:50;;;;;;;2.70;1.27;;;;;;;;;;5022939;28;20072;-66
2023/01/31 03:15:24;;;;;;;6.88;1.27;;;;;;;;;;5021848;28;20389;-65
2023/01/31 03:18:10;;;;;;;3.03;1.27;;;;;;;;;;5021326;28;20065;-67
2023/01/31 03:20:44;;;;;;;3.55;1.20;;;;;;;;;;5018390;28;20066;-66
2023/01/31 03:23:13;;;;;;;4.05;1.23;;;;;;;;;;5019411;28;20091;-66
2023/01/31 03:25:40;;;;;;;4.97;1.42;;;;;;;;;;5008862;28;20110;-63
2023/01/31 03:28:10;;;;;;;3.53;1.40;;;;;;;;;;5021468;28;20136;-66
2023/01/31 03:30:39;;;;;;;3.03;1.00;;;;;;;;;;5022494;28;20091;-67
2023/01/31 03:33:10;;;;;;;3.95;1.35;;;;;;;;;;5021333;28;20037;-67
2023/01/31 03:35:37;;;;;;;3.55;1.30;;;;;;;;;;5016867;28;20052;-66
2023/01/31 03:38:07;;;;;;;3.17;1.48;;;;;;;;;;5018328;28;20050;-65
2023/01/31 03:40:36;;;;;;;3.42;1.50;;;;;;;;;;5004879;28;20045;-65
2023/01/31 03:43:21;;;;;;;3.65;1.45;;;;;;;;;;5008212;28;20041;-65
2023/01/31 03:45:53;;;;;;;6.88;1.48;;;;;;;;;;5014848;28;20041;-67
2023/01/31 03:48:21;;;;;;;3.63;1.77;;;;;;;;;;5006804;28;20061;-64
2023/01/31 03:50:57;;;;;;;7.97;2.53;;;;;;;;;;5000691;28;20044;-65
2023/01/31 03:53:24;;;;;;;5.82;1.52;;;;;;;;;;5000373;28;20108;-65
2023/01/31 03:56:13;;;;;;;6.25;1.50;;;;;;;;;;5000999;28;20050;-65
2023/01/31 03:58:43;;;;;;;3.33;1.33;;;;;;;;;;4995646;28;20053;-65
2023/01/31 04:01:10;;;;;;;4.93;1.20;;;;;;;;;;5001387;28;20033;-65
2023/01/31 04:03:57;;;;;;;3.75;1.10;;;;;;;;;;5000053;28;20659;-65
2023/01/31 04:06:24;;;;;;;3.47;1.08;;;;;;;;;;5001002;28;20100;-63
2023/01/31 04:08:50;;;;;;;2.42;1.10;;;;;;;;;;5000458;28;20034;-66
2023/01/31 04:11:20;;;;;;;2.83;1.30;;;;;;;;;;5000297;28;20386;-66
2023/01/31 04:13:46;;;;;;;3.65;0.98;;;;;;;;;;4999350;28;20072;-66
2023/01/31 04:16:13;;;;;;;2.63;1.05;;;;;;;;;;5001279;28;20087;-66
2023/01/31 04:18:40;;;;;;;6.20;1.25;;;;;;;;;;5001457;28;22264;-65
2023/01/31 04:21:06;;;;;;;3.50;1.13;;;;;;;;;;5001652;28;20053;-66
2023/01/31 04:23:33;;;;;;;2.60;1.10;;;;;;;;;;5000512;28;20144;-66
2023/01/31 04:25:59;;;;;;;2.80;1.25;;;;;;;;;;5005551;28;20034;-66
2023/01/31 04:28:26;;;;;;;2.15;1.05;;;;;;;;;;5001660;28;20045;-65
2023/01/31 04:30:53;;;;;;;5.07;1.38;;;;;;;;;;5001379;28;20138;-65
2023/01/31 04:33:20;;;;;;;3.22;1.10;;;;;;;;;;5007673;28;20048;-65
2023/01/31 04:35:47;;;;;;;3.58;1.50;;;;;;;;;;5001857;28;20728;-65
2023/01/31 04:38:14;;;;;;;4.15;1.45;;;;;;;;;;4999719;28;20057;-65
2023/01/31 04:40:40;;;;;;;9.00;1.45;;;;;;;;;;4999318;28;20037;-67
2023/01/31 04:43:07;;;;;;;6.82;1.70;;;;;;;;;;4999925;28;20577;-65
2023/01/31 04:45:34;;;;;;;4.40;1.20;;;;;;;;;;4999500;28;20121;-66
2023/01/31 04:48:00;;;;;;;5.60;1.25;;;;;;;;;;4998387;28;20576;-66
2023/01/31 04:50:27;;;;;;;4.82;1.50;;;;;;;;;;4999552;28;20064;-66
2023/01/31 04:52:54;;;;;;;3.55;1.25;;;;;;;;;;5000234;28;20096;-65
2023/01/31 04:55:22;;;;;;;4.05;1.08;;;;;;;;;;4999172;28;20154;-66
2023/01/31 04:57:49;;;;;;;3.90;1.33;;;;;;;;;;4999053;28;22283;-65
2023/01/31 05:00:16;;;;;;;3.38;1.30;;;;;;;;;;4999572;28;20159;-66
2023/01/31 05:02:42;;;;;;;4.45;1.42;;;;;;;;;;4999489;28;20150;-66
2023/01/31 05:05:11;;;;;;;3.85;1.13;;;;;;;;;;5000088;28;20507;-66
2023/01/31 05:07:38;;;;;;;3.92;1.05;;;;;;;;;;4999799;28;20049;-66
2023/01/31 05:10:06;;;;;;;3.00;1.23;;;;;;;;;;5001514;28;20046;-64
2023/01/31 05:12:32;;;;;;;4.80;1.40;;;;;;;;;;5000031;28;20065;-66
2023/01/31 05:15:00;;;;;;;9.98;1.42;;;;;;;;;;5001486;28;20096;-66
2023/01/31 05:17:28;;;;;;;6.57;2.40;;;;;;;;;;4998687;28;20045;-65
2023/01/31 05:19:58;;;;;;;5.68;1.63;;;;;;;;;;4999260;28;20041;-66
2023/01/31 05:22:25;;;;;;;6.35;1.95;;;;;;;;;;5000659;28;20558;-66
2023/01/31 05:24:51;;;;;;;4.43;1.77;;;;;;;;;;5001339;28;20123;-66
2023/01/31 05:27:18;;;;;;;5.13;1.77;;;;;;;;;;4999978;28;20158;-67
2023/01/31 05:29:45;;;;;;;4.78;1.77;;;;;;;;;;5011022;28;20054;-66
2023/01/31 05:32:13;;;;;;;5.00;1.85;;;;;;;;;;5013020;28;20042;-66
2023/01/31 05:34:39;;;;;;;4.70;2.00;;;;;;;;;;5008849;28;20076;-66
2023/01/31 05:37:06;;;;;;;7.32;1.85;;;;;;;;;;5005371;28;20359;-66
2023/01/31 05:39:33;;;;;;;9.20;1.60;;;;;;;;;;4999486;28;20033;-66
2023/01/31 05:42:00;;;;;;;4.55;1.73;;;;;;;;;;5001021;28;20045;-65
2023/01/31 05:44:26;;;;;;;8.68;1.65;;;;;;;;;;5000056;28;20044;-65
2023/01/31 05:46:53;;;;;;;5.60;1.48;;;;;;;;;;4998688;28;20491;-66
2023/01/31 05:49:20;;;;;;;4.97;1.77;;;;;;;;;;4999407;28;20080;-67
2023/01/31 05:51:46;;;;;;;7.47;2.13;;;;;;;;;;4998570;28;20161;-67
2023/01/31 05:54:13;;;;;;;4.63;2.00;;;;;;;;;;5000389;28;20088;-66
2023/01/31 05:56:40;;;;;;;4.22;1.80;;;;;;;;;;4998650;28;20227;-67
2023/01/31 05:59:07;;;;;;;5.75;1.60;;;;;;;;;;4999532;28;20037;-68
2023/01/31 06:01:33;;;;;;;4.22;1.42;;;;;;;;;;4993298;28;20142;-65
2023/01/31 06:04:00;;;;;;;4.93;1.85;;;;;;;;;;4999720;28;20387;-67
2023/01/31 06:06:27;;;;;;;5.72;1.83;;;;;;;;;;5010738;28;20042;-67
2023/01/31 06:08:53;;;;;;;5.70;2.08;;;;;;;;;;5000512;28;20077;-66
2023/01/31 06:11:20;;;;;;;8.00;2.20;;;;;;;;;;5000344;28;20046;-66
2023/01/31 06:13:48;;;;;;;6.28;1.80;;;;;;;;;;5000740;28;20041;-66
2023/01/31 06:16:14;;;;;;;6.22;1.23;;;;;;;;;;5000462;28;20041;-67
2023/01/31 06:18:41;;;;;;;4.22;1.60;;;;;;;;;;5002064;28;20049;-66
2023/01/31 06:21:08;;;;;;;5.50;1.60;;;;;;;;;;5003857;28;20504;-67
2023/01/31 06:23:34;;;;;;;2.40;1.00;;;;;;;;;;5003617;28;20081;-66
2023/01/31 06:26:01;;;;;;;3.67;1.70;;;;;;;;;;5014770;28;20037;-67
2023/01/31 06:28:28;;;;;;;3.13;1.27;;;;;;;;;;5002815;28;20030;-67
2023/01/31 06:30:55;;;;;;;3.28;1.35;;;;;;;;;;5003695;28;20454;-66
2023/01/31 06:33:22;;;;;;;3.83;1.40;;;;;;;;;;5003432;28;20085;-66
2023/01/31 06:35:48;;;;;;;3.70;1.33;;;;;;;;;;5003813;28;20046;-66
2023/01/31 06:38:15;;;;;;;4.32;1.40;;;;;;;;;;5003446;28;20050;-66
2023/01/31 06:40:42;;;;;;;3.45;1.42;;;;;;;;;;5002884;28;20049;-66
2023/01/31 06:43:08;;;;;;;3.90;1.85;;;;;;;;;;5002960;28;20038;-66
2023/01/31 06:45:36;;;;;;;3.25;1.35;;;;;;;;;;5003469;28;20033;-66
2023/01/31 06:48:03;;;;;;;4.50;1.52;;;;;;;;;;5003037;28;20037;-65
2023/01/31 06:50:30;;;;;;;5.60;1.52;;;;;;;;;;5000433;28;20053;-66
2023/01/31 06:52:58;;;;;;;4.82;1.65;;;;;;;;;;5003498;28;20042;-66
2023/01/31 06:55:24;;;;;;;4.35;1.27;;;;;;;;;;5002285;28;20199;-66
2023/01/31 06:57:51;;;;;;;3.05;1.17;;;;;;;;;;5000618;28;20057;-66
2023/01/31 07:00:37;;;;;;;6.07;1.65;;;;;;;;;;5015439;28;20042;-66
2023/01/31 07:03:04;;;;;;;2.90;1.15;;;;;;;;;;5016505;28;20060;-66
2023/01/31 07:05:31;;;;;;;4.57;1.65;;;;;;;;;;5017758;28;20041;-67
2023/01/31 07:07:57;;;;;;;3.95;1.23;;;;;;;;;;5016634;28;20044;-65
2023/01/31 07:10:24;;;;;;;5.10;1.75;;;;;;;;;;5017284;28;20033;-65
2023/01/31 07:12:51;;;;;;;2.55;1.02;;;;;;;;;;5006641;28;20041;-66
2023/01/31 07:15:17;;;;;;;3.22;1.25;;;;;;;;;;5016816;28;20068;-65
2023/01/31 07:17:44;;;;;;;4.20;1.30;;;;;;;;;;5014926;28;20103;-65
2023/01/31 07:20:11;;;;;;;2.25;1.00;;;;;;;;;;5016978;28;20037;-66
2023/01/31 07:22:38;;;;;;;2.72;1.05;;;;;;;;;;5017438;28;20097;-66
2023/01/31 07:25:05;;;;;;;3.50;0.90;;;;;;;;;;5019970;28;20049;-67
2023/01/31 07:27:31;;;;;;;4.32;1.00;;;;;;;;;;5017435;28;20052;-67
2023/01/31 07:29:58;;;;;;;3.30;0.95;;;;;;;;;;5019672;28;20027;-65
2023/01/31 07:32:28;;;;;;;2.38;1.05;;;;;;;;;;5019036;28;20107;-67
2023/01/31 07:34:55;;;;;;;4.13;0.85;;;;;;;;;;5018907;28;20037;-67
2023/01/31 07:37:21;;;;;;;2.80;1.00;;;;;;;;;;5014589;28;20060;-65
2023/01/31 07:39:49;;;;;;;2.28;0.95;;;;;;;;;;5004505;28;20086;-66
2023/01/31 07:42:15;;;;;;;2.15;0.80;;;;;;;;;;5004055;28;20358;-65
2023/01/31 07:44:42;;;;;;;2.65;1.05;;;;;;;;;;5003465;28;20037;-67
2023/01/31 07:47:09;;;;;;;2.88;1.10;;;;;;;;;;5001755;28;20510;-66
2023/01/31 07:49:35;;;;;;;4.93;1.05;;;;;;;;;;5003747;28;20084;-65
2023/01/31 07:52:02;;;;;;;3.63;1.00;;;;;;;;;;5002861;28;20042;-66
2023/01/31 07:54:28;;;;;;;2.65;0.93;;;;;;;;;;5001820;28;20162;-64
2023/01/31 07:56:55;;;;;;;2.13;0.90;;;;;;;;;;5001506;28;20057;-65
2023/01/31 07:59:22;;;;;;;2.38;0.85;;;;;;;;;;4997384;28;20088;-66
2023/01/31 08:04:33;;;;;;;4.13;1.38;;;;;;;;;;5003410;28;20041;-66
2023/01/31 08:07:04;;;;;;;2.25;0.90;;;;;;;;;;5002610;28;20063;-66
2023/01/31 08:09:31;;;;;;;2.95;0.90;;;;;;;;;;5003433;28;20173;-66
2023/01/31 08:11:57;;;;;;;2.30;0.80;;;;;;;;;;5002435;28;20357;-66
2023/01/31 08:14:26;;;;;;;3.35;1.08;;;;;;;;;;5002037;28;20046;-66
2023/01/31 08:16:54;;;;;;;2.95;1.15;;;;;;;;;;5002112;28;20435;-64
2023/01/31 08:19:21;;;;;;;3.70;1.00;;;;;;;;;;5001281;28;20042;-66
2023/01/31 08:21:48;;;;;;;3.08;1.08;;;;;;;;;;5011018;28;20045;-66
2023/01/31 08:24:15;;;;;;;6.45;1.55;;;;;;;;;;5010748;28;20046;-65
2023/01/31 08:26:42;;;;;;;2.90;1.10;;;;;;;;;;5002283;28;20046;-66
2023/01/31 08:29:09;;;;;;;2.95;0.90;;;;;;;;;;5002044;28;20034;-67
2023/01/31 08:31:35;;;;;;;2.45;0.95;;;;;;;;;;5000424;28;20080;-65
2023/01/31 08:34:02;;;;;;;4.45;1.15;;;;;;;;;;5003280;28;20058;-67
2023/01/31 08:36:34;;;;;;;4.85;1.25;;;;;;;;;;5003146;28;20201;-66
2023/01/31 08:39:01;;;;;;;2.40;0.82;;;;;;;;;;5002346;28;20260;-66
2023/01/31 08:41:28;;;;;;;2.25;0.82;;;;;;;;;;4999919;28;20399;-66
2023/01/31 08:43:56;;;;;;;2.55;1.00;;;;;;;;;;5004812;28;20121;-66
2023/01/31 08:46:24;;;;;;;4.68;1.13;;;;;;;;;;5004992;28;20046;-66
2023/01/31 08:48:51;;;;;;;2.03;0.80;;;;;;;;;;5001800;28;20403;-65
2023/01/31 08:51:17;;;;;;;5.07;1.50;;;;;;;;;;5005078;28;20034;-66
2023/01/31 08:53:44;;;;;;;2.67;1.00;;;;;;;;;;5000355;28;20038;-66
2023/01/31 08:56:12;;;;;;;4.15;0.90;;;;;;;;;;5000623;28;20105;-65
2023/01/31 08:58:40;;;;;;;4.00;1.20;;;;;;;;;;4999254;28;20046;-66
2023/01/31 09:01:08;;;;;;;2.75;1.08;;;;;;;;;;5016070;28;20034;-66
2023/01/31 09:03:34;;;;;;;3.30;1.17;;;;;;;;;;4999827;28;20187;-65
2023/01/31 09:06:02;;;;;;;3.00;1.23;;;;;;;;;;5002583;28;20066;-65
2023/01/31 09:08:29;;;;;;;1.92;0.95;;;;;;;;;;4999392;28;20065;-65
2023/01/31 09:10:59;;;;;;;3.40;1.33;;;;;;;;;;5002588;28;20853;-65
2023/01/31 09:13:26;;;;;;;1.38;0.60;;;;;;;;;;5000243;28;20566;-64
2023/01/31 09:16:06;;;;;;;2.47;0.95;;;;;;;;;;5001240;28;20042;-65
2023/01/31 09:18:33;;;;;;;1.63;0.80;;;;;;;;;;4999971;28;20104;-66
2023/01/31 09:21:04;;;;;;;1.77;0.82;;;;;;;;;;5000800;28;20652;-65
2023/01/31 09:23:31;;;;;;;2.78;0.90;;;;;;;;;;4999975;28;20149;-66
2023/01/31 09:25:57;;;;;;;3.35;0.93;;;;;;;;;;5000837;28;20041;-63
2023/01/31 09:28:24;;;;;;;2.45;0.80;;;;;;;;;;4999010;28;20045;-66
2023/01/31 09:30:53;;;;;;;3.92;0.90;;;;;;;;;;4999992;28;20049;-65
2023/01/31 09:33:21;;;;;;;1.77;0.82;;;;;;;;;;4999791;28;20041;-66
2023/01/31 09:36:04;;;;;;;1.85;0.90;;;;;;;;;;4999532;28;20319;-65
2023/01/31 09:38:31;;;;;;;3.60;1.08;;;;;;;;;;5007325;28;20077;-64
2023/01/31 09:40:59;;;;;;;3.40;1.00;;;;;;;;;;4998803;28;20041;-64
2023/01/31 09:43:28;;;;;;;2.90;1.05;;;;;;;;;;4999320;28;20034;-65
2023/01/31 09:45:58;;;;;;;0.82;0.50;;;;;;;;;;4999909;28;20149;-65
2023/01/31 09:48:29;;;;;;;7.47;0.93;;;;;;;;;;4999044;28;21559;-65
2023/01/31 09:50:57;;;;;;;3.65;1.08;;;;;;;;;;5000466;28;20381;-66
2023/01/31 09:53:26;;;;;;;1.17;0.52;;;;;;;;;;4998270;28;20531;-64
2023/01/31 09:56:01;;;;;;;0.35;0.32;;;;;;;;;;5000362;28;20121;-65
2023/01/31 09:58:31;;;;;;;1.10;0.80;;;;;;;;;;4998132;28;20518;-65
2023/01/31 10:01:06;;;;;;;0.65;0.47;;;;;;;;;;4998866;28;20092;-65
2023/01/31 10:03:48;;;;;;;1.85;0.90;;;;;;;;;;5000253;28;20045;-65
2023/01/31 10:06:18;;;;;;;2.22;0.77;;;;;;;;;;4999620;28;20069;-64
2023/01/31 10:08:56;;;;;;;1.83;0.47;;;;;;;;;;5007460;28;20042;-64
2023/01/31 10:11:29;;;;;;;1.23;0.70;;;;;;;;;;5007623;28;20045;-64
2023/01/31 10:13:58;;;;;;;1.48;0.45;;;;;;;;;;4998773;28;20041;-65
2023/01/31 10:16:28;;;;;;;1.92;0.65;;;;;;;;;;4999005;28;20034;-65
2023/01/31 10:18:58;;;;;;;1.00;0.50;;;;;;;;;;4999285;28;20053;-64
2023/01/31 10:21:43;;;;;;;1.77;0.50;;;;;;;;;;4999356;28;20107;-64
2023/01/31 10:24:12;;;;;;;0.57;0.30;;;;;;;;;;5000322;28;20522;-64
2023/01/31 10:26:40;;;;;;;0.20;0.20;;;;;;;;;;4998294;28;20743;-66
2023/01/31 10:29:16;;;;;;;0.20;0.20;;;;;;;;;;5000554;28;20395;-66
2023/01/31 10:31:51;;;;;;;0.20;0.20;;;;;;;;;;4999354;28;20038;-66
2023/01/31 10:34:29;;;;;;;1.45;0.57;;;;;;;;;;4997701;28;20081;-66
2023/01/31 10:37:02;;;;;;;1.00;0.40;;;;;;;;;;5006825;28;20049;-65
2023/01/31 10:39:58;;;;;;;1.77;0.50;;;;;;;;;;4998991;28;20057;-63
2023/01/31 10:42:28;;;;;;;0.88;0.40;;;;;;;;;;4984303;28;20049;-65
2023/01/31 10:44:54;;;;;;;1.08;0.50;;;;;;;;;;5001282;28;20045;-65
2023/01/31 10:47:26;;;;;;;0.98;0.43;;;;;;;;;;4995898;28;20525;-65
2023/01/31 10:49:53;;;;;;;1.25;0.45;;;;;;;;;;5001387;28;20037;-65
2023/01/31 10:52:35;;;;;;;0.77;0.38;;;;;;;;;;4998763;28;20041;-66
2023/01/31 10:55:07;;;;;;;6.43;0.32;;;;;;;;;;4999980;28;20092;-65
2023/01/31 10:57:34;;;;;;;0.93;0.35;;;;;;;;;;4997777;28;20057;-66
2023/01/31 11:00:01;;;;;;;0.90;0.40;;;;;;;;;;4999214;28;20033;-66
2023/01/31 11:02:28;;;;;;;2.08;0.60;;;;;;;;;;4998851;28;20041;-66
2023/01/31 11:04:56;;;;;;;0.55;0.30;;;;;;;;;;5003443;28;20049;-65
2023/01/31 11:07:23;;;;;;;1.15;0.43;;;;;;;;;;5001880;28;20718;-65
2023/01/31 11:09:52;;;;;;;0.30;0.30;;;;;;;;;;5003096;28;20151;-65
2023/01/31 11:12:21;;;;;;;1.25;0.40;;;;;;;;;;5000881;28;20165;-65
2023/01/31 11:15:20;;;;;;;1.15;0.40;;;;;;;;;;5001850;28;20199;-64
2023/01/31 11:17:47;;;;;;;1.35;0.38;;;;;;;;;;4960402;28;20830;-65
2023/01/31 11:20:26;;;;;;;1.13;0.40;;;;;;;;;;5003293;28;20052;-66
2023/01/31 11:22:54;;;;;;;3.60;0.38;;;;;;;;;;5000749;28;20052;-65
2023/01/31 11:25:24;;;;;;;0.75;0.35;;;;;;;;;;5003865;28;20041;-65
2023/01/31 11:27:57;;;;;;;0.85;0.32;;;;;;;;;;5002256;28;20133;-65
2023/01/31 11:30:29;;;;;;;3.03;0.63;;;;;;;;;;5001268;28;20057;-65
2023/01/31 11:32:56;;;;;;;1.65;0.40;;;;;;;;;;5000632;28;20049;-65
2023/01/31 11:35:25;;;;;;;5.90;0.32;;;;;;;;;;5001106;28;20045;-65
2023/01/31 11:38:03;;;;;;;1.98;0.50;;;;;;;;;;5001587;28;21254;-65
2023/01/31 11:40:35;;;;;;;5.00;0.57;;;;;;;;;;5001909;28;20096;-65
2023/01/31 11:43:31;;;;;;;0.63;0.38;;;;;;;;;;5002328;28;20430;-65
2023/01/31 11:46:00;;;;;;;0.63;0.30;;;;;;;;;;4995662;28;20060;-64
2023/01/31 11:48:48;;;;;;;0.60;0.30;;;;;;;;;;5000701;28;20125;-65
2023/01/31 11:51:25;;;;;;;0.50;0.30;;;;;;;;;;5000801;28;20510;-65
2023/01/31 11:53:52;;;;;;;1.25;0.52;;;;;;;;;;4999733;28;20565;-65
2023/01/31 11:56:19;;;;;;;0.98;0.40;;;;;;;;;;5001296;28;21508;-66
2023/01/31 11:58:47;;;;;;;1.92;0.55;;;;;;;;;;5001398;28;20043;-65
2023/01/31 12:01:17;;;;;;;1.10;0.50;;;;;;;;;;5001134;28;20042;-65
2023/01/31 12:04:09;;;;;;;0.68;0.40;;;;;;;;;;5021901;28;20045;-63
2023/01/31 12:06:40;;;;;;;1.10;0.40;;;;;;;;;;5018048;28;20037;-65
2023/01/31 12:09:26;;;;;;;2.90;0.60;;;;;;;;;;5021919;28;20029;-66
2023/01/31 12:11:55;;;;;;;1.75;0.55;;;;;;;;;;5023490;28;20059;-66
2023/01/31 12:14:23;;;;;;;0.65;0.30;;;;;;;;;;5021590;28;20048;-65
2023/01/31 12:16:53;;;;;;;2.38;0.98;;;;;;;;;;5019566;28;20194;-66
2023/01/31 12:19:29;;;;;;;1.95;0.70;;;;;;;;;;5019636;28;20052;-66
2023/01/31 12:22:02;;;;;;;2.65;0.80;;;;;;;;;;5021131;28;20056;-65
2023/01/31 12:24:48;;;;;;;1.20;0.45;;;;;;;;;;5021268;28;20049;-65
2023/01/31 12:27:20;;;;;;;5.03;0.60;;;;;;;;;;5020214;28;20469;-65
2023/01/31 12:30:05;;;;;;;0.30;0.30;;;;;;;;;;5020490;28;20037;-65
2023/01/31 12:32:51;;;;;;;1.27;0.50;;;;;;;;;;5018725;28;20270;-65
2023/01/31 12:35:17;;;;;;;1.35;0.45;;;;;;;;;;5020213;28;20434;-64
2023/01/31 12:38:06;;;;;;;1.25;0.52;;;;;;;;;;5007317;28;20046;-65
2023/01/31 12:40:37;;;;;;;0.30;0.30;;;;;;;;;;5016557;28;20136;-65
2023/01/31 12:43:11;;;;;;;1.63;0.50;;;;;;;;;;5007968;28;20578;-65
2023/01/31 12:45:38;;;;;;;1.85;0.60;;;;;;;;;;5001026;28;21237;-65
2023/01/31 12:48:12;;;;;;;0.98;0.38;;;;;;;;;;5000376;28;20042;-65
2023/01/31 12:50:44;;;;;;;0.57;0.38;;;;;;;;;;5001211;28;20087;-65
2023/01/31 12:53:14;;;;;;;0.68;0.45;;;;;;;;;;5001339;28;20065;-65
2023/01/31 12:55:49;;;;;;;0.20;0.20;;;;;;;;;;5000014;28;20113;-65
2023/01/31 12:58:16;;;;;;;3.13;0.98;;;;;;;;;;5000215;28;20864;-65
2023/01/31 13:01:01;;;;;;;0.40;0.30;;;;;;;;;;4998444;28;20057;-65
2023/01/31 13:03:35;;;;;;;0.98;0.45;;;;;;;;;;4997296;28;20084;-65
2023/01/31 13:06:16;;;;;;;4.47;0.47;;;;;;;;;;5004004;28;20664;-66
2023/01/31 13:08:46;;;;;;;1.48;0.57;;;;;;;;;;4988701;28;20042;-65
2023/01/31 13:11:24;;;;;;;1.52;0.50;;;;;;;;;;5004827;28;20060;-65
2023/01/31 13:13:51;;;;;;;1.98;0.60;;;;;;;;;;5007062;28;20053;-64
2023/01/31 13:16:33;;;;;;;1.27;0.60;;;;;;;;;;5002564;28;20063;-66
2023/01/31 13:19:02;;;;;;;0.70;0.32;;;;;;;;;;5017156;28;20099;-65
2023/01/31 13:21:38;;;;;;;3.35;0.50;;;;;;;;;;4999761;28;20041;-65
2023/01/31 13:24:26;;;;;;;0.20;0.20;;;;;;;;;;4998655;28;20050;-65
2023/01/31 13:27:00;;;;;;;0.98;0.43;;;;;;;;;;4999584;28;20037;-65
2023/01/31 13:29:51;;;;;;;0.50;0.30;;;;;;;;;;4999065;28;20168;-65
2023/01/31 13:32:25;;;;;;;0.68;0.32;;;;;;;;;;5000566;28;20080;-65
2023/01/31 13:34:55;;;;;;;1.83;0.60;;;;;;;;;;5001240;28;20170;-65
2023/01/31 13:37:25;;;;;;;1.67;0.70;;;;;;;;;;5001562;28;20921;-66
2023/01/31 13:40:02;;;;;;;1.98;0.60;;;;;;;;;;5001717;28;20438;-66
2023/01/31 13:42:31;;;;;;;1.90;0.70;;;;;;;;;;5002396;28;20050;-65
2023/01/31 13:45:00;;;;;;;1.42;0.60;;;;;;;;;;5003586;28;20045;-65
2023/01/31 13:47:29;;;;;;;0.88;0.47;;;;;;;;;;5001526;28;20033;-66
2023/01/31 13:49:56;;;;;;;0.20;0.20;;;;;;;;;;5002425;28;20033;-66
2023/01/31 13:52:29;;;;;;;1.23;0.50;;;;;;;;;;4998728;28;20507;-66
2023/01/31 13:54:58;;;;;;;0.70;0.40;;;;;;;;;;4996739;28;20080;-65
2023/01/31 13:57:33;;;;;;;1.55;0.45;;;;;;;;;;4998698;28;20149;-65
2023/01/31 14:00:08;;;;;;;3.17;0.73;;;;;;;;;;4999625;28;20045;-65
2023/01/31 14:02:35;;;;;;;2.08;0.82;;;;;;;;;;4997296;28;20070;-64
2023/01/31 14:05:25;;;;;;;1.90;0.70;;;;;;;;;;5003701;28;20049;-67
2023/01/31 14:08:11;;;;;;;4.07;0.85;;;;;;;;;;4994373;28;20064;-65
2023/01/31 14:10:42;;;;;;;4.63;1.23;;;;;;;;;;5021355;28;20072;-65
2023/01/31 14:13:28;;;;;;;2.63;1.00;;;;;;;;;;5019418;28;20056;-64
2023/01/31 14:15:56;;;;;;;2.05;0.73;;;;;;;;;;4999108;28;20624;-64
2023/01/31 14:18:42;;;;;;;2.78;0.90;;;;;;;;;;5019438;28;20837;-64
2023/01/31 14:21:28;;;;;;;8.57;1.27;;;;;;;;;;5018113;28;20041;-64
2023/01/31 14:24:05;;;;;;;5.55;1.40;;;;;;;;;;5019828;28;20103;-62
2023/01/31 14:26:34;;;;;;;3.80;1.00;;;;;;;;;;5021691;28;20117;-64
2023/01/31 14:29:07;;;;;;;1.45;0.68;;;;;;;;;;5019375;28;20890;-64
2023/01/31 14:31:34;;;;;;;1.92;1.15;;;;;;;;;;5017375;28;20041;-64
2023/01/31 14:34:01;;;;;;;4.65;0.65;;;;;;;;;;5007643;28;20046;-65
2023/01/31 14:36:40;;;;;;;3.13;1.05;;;;;;;;;;4998646;28;20042;-64
2023/01/31 14:39:18;;;;;;;4.22;1.80;;;;;;;;;;5003323;28;20450;-65
2023/01/31 14:41:57;;;;;;;3.85;1.25;;;;;;;;;;5013899;28;20084;-65
2023/01/31 14:44:33;;;;;;;2.33;1.13;;;;;;;;;;5012138;28;20044;-65
2023/01/31 14:47:38;;;;;;;2.95;1.35;;;;;;;;;;5007092;28;20065;-66
2023/01/31 14:50:16;;;;;;;4.80;1.45;;;;;;;;;;4926372;29;20055;-64
2023/01/31 14:53:01;;;;;;;1.85;1.00;;;;;;;;;;4884603;29;20048;-64
2023/01/31 14:55:57;;;;;;;2.22;1.13;;;;;;;;;;4936597;28;20043;-65
2023/01/31 14:58:25;;;;;;;2.58;0.90;;;;;;;;;;4945657;28;20083;-65
2023/01/31 15:01:03;;;;;;;4.57;1.58;;;;;;;;;;4953900;28;20393;-65
2023/01/31 15:03:34;;;;;;;6.63;2.03;;;;;;;;;;4953374;28;20133;-65
2023/01/31 15:06:21;;;;;;;8.55;2.53;;;;;;;;;;4964701;28;20621;-65
2023/01/31 15:08:50;;;;;;;8.68;2.22;;;;;;;;;;4977898;28;20118;-64
2023/01/31 15:11:25;;;;;;;7.20;2.30;;;;;;;;;;4978634;28;20043;-64
2023/01/31 15:13:57;;;;;;;4.53;1.60;;;;;;;;;;4976194;28;20445;-65
2023/01/31 15:16:33;;;;;;;4.15;1.63;;;;;;;;;;4974637;28;20867;-65